createdAt,value
2022-12-15T06:49:11.950Z,34.10
2022-12-15T06:51:58.354Z,36.13
2022-12-15T06:54:45.064Z,33.25
2022-12-15T06:57:30.651Z,31.17
2022-12-15T07:00:16.626Z,31.20
2022-12-15T07:03:07.175Z,29.63
2022-12-15T07:06:05.776Z,28.83
2022-12-15T07:08:53.960Z,47.47
2022-12-15T07:11:40.842Z,25.83
2022-12-15T07:14:28.155Z,27.00
2022-12-15T07:17:14.834Z,27.92
2022-12-15T07:20:02.096Z,24.37
2022-12-15T07:22:52.355Z,26.20
2022-12-15T07:25:38.338Z,29.25
2022-12-15T07:28:25.953Z,30.67
2022-12-15T07:31:12.778Z,32.42
2022-12-15T07:33:59.390Z,30.60
2022-12-15T07:36:51.491Z,30.95
2022-12-15T07:39:37.961Z,30.37
2022-12-15T07:42:23.621Z,28.85
2022-12-15T07:45:15.495Z,29.10
2022-12-15T07:48:00.990Z,31.60
2022-12-15T07:50:47.026Z,30.83
2022-12-15T07:53:36.963Z,31.05
2022-12-15T07:56:22.402Z,32.63
2022-12-15T07:59:08.999Z,36.45
2022-12-15T08:01:54.753Z,38.33
2022-12-15T08:04:41.052Z,36.78
2022-12-15T08:07:26.177Z,39.25
2022-12-15T08:10:11.724Z,36.78
2022-12-15T08:12:57.363Z,34.30
2022-12-15T08:15:43.260Z,33.05
2022-12-15T08:18:29.502Z,35.67
2022-12-15T08:21:15.171Z,38.50
2022-12-15T08:24:01.131Z,35.05
2022-12-15T08:26:50.092Z,31.92
2022-12-15T08:29:52.980Z,29.95
2022-12-15T08:32:40.505Z,28.73
2022-12-15T08:35:55.128Z,27.73
2022-12-15T08:38:42.746Z,26.98
2022-12-15T08:41:30.554Z,25.40
2022-12-15T08:44:17.096Z,25.83
2022-12-15T08:47:02.789Z,23.30
2022-12-15T08:49:50.274Z,24.92
2022-12-15T08:52:35.799Z,23.92
2022-12-15T08:55:23.677Z,25.52
2022-12-15T08:58:09.030Z,29.23
2022-12-15T09:01:01.184Z,27.45
2022-12-15T09:03:47.417Z,27.25
2022-12-15T09:06:34.839Z,26.48
2022-12-15T09:09:20.550Z,27.77
2022-12-15T09:12:06.617Z,29.83
2022-12-15T09:14:51.937Z,29.10
2022-12-15T09:17:39.543Z,27.58
2022-12-15T09:20:25.036Z,28.75
2022-12-15T09:23:14.428Z,29.25
2022-12-15T09:26:11.067Z,27.65
2022-12-15T09:28:56.696Z,27.17
2022-12-15T09:31:44.694Z,28.77
2022-12-15T09:34:30.178Z,26.33
2022-12-15T09:37:15.877Z,25.20
2022-12-15T09:40:01.526Z,24.00
2022-12-15T09:43:04.914Z,23.02
2022-12-15T09:46:16.565Z,23.40
2022-12-15T09:49:05.396Z,25.98
2022-12-15T09:51:56.265Z,24.92
2022-12-15T09:54:43.528Z,25.40
2022-12-15T09:57:45.296Z,26.42
2022-12-15T10:00:38.713Z,24.35
2022-12-15T10:03:36.421Z,26.90
2022-12-15T10:06:50.815Z,26.48
2022-12-15T10:09:37.299Z,27.20
2022-12-15T10:12:30.128Z,26.30
2022-12-15T10:15:25.293Z,24.67
2022-12-15T10:18:23.001Z,24.87
2022-12-15T10:21:14.751Z,25.52
2022-12-15T10:25:09.312Z,25.92
2022-12-15T10:28:08.265Z,25.30
2022-12-15T10:31:04.820Z,24.17
2022-12-15T10:33:58.298Z,24.63
2022-12-15T10:36:51.133Z,25.88
2022-12-15T10:39:42.074Z,24.43
2022-12-15T10:42:29.820Z,24.65
2022-12-15T10:45:33.947Z,23.75
2022-12-15T10:48:20.391Z,24.08
2022-12-15T10:51:25.987Z,25.73
2022-12-15T10:54:15.773Z,24.73
2022-12-15T10:57:16.056Z,26.40
2022-12-15T11:00:13.927Z,23.83
2022-12-15T11:03:00.483Z,26.00
2022-12-15T11:05:55.277Z,25.48
2022-12-15T11:08:42.726Z,25.48
2022-12-15T11:11:52.842Z,27.00
2022-12-15T11:14:49.190Z,28.50
2022-12-15T11:17:40.994Z,27.05
2022-12-15T11:20:34.879Z,27.52
2022-12-15T11:23:51.105Z,26.40
2022-12-15T11:26:43.865Z,26.08
2022-12-15T11:29:54.219Z,27.30
2022-12-15T11:32:42.835Z,26.85
2022-12-15T11:35:46.556Z,25.95
2022-12-15T11:38:37.778Z,28.50
2022-12-15T11:41:57.929Z,30.08
2022-12-15T11:44:52.844Z,27.58
2022-12-15T11:47:44.944Z,25.05
2022-12-15T11:50:56.361Z,25.85
2022-12-15T11:54:14.991Z,26.05
2022-12-15T11:57:42.702Z,25.35
2022-12-15T12:00:31.967Z,25.92
2022-12-15T12:03:17.431Z,25.42
2022-12-15T12:06:39.779Z,26.08
2022-12-15T12:09:37.218Z,27.55
2022-12-15T12:12:22.929Z,28.52
2022-12-15T12:15:11.381Z,27.75
2022-12-15T12:18:04.505Z,28.48
2022-12-15T12:20:58.776Z,28.12
2022-12-15T12:23:50.068Z,27.42
2022-12-15T12:26:40.831Z,26.37
2022-12-15T12:29:26.021Z,27.80
2022-12-15T12:32:16.040Z,26.87
2022-12-15T12:35:32.323Z,27.73
2022-12-15T12:38:25.188Z,28.52
2022-12-15T12:41:19.032Z,27.30
2022-12-15T12:47:26.468Z,27.33
2022-12-15T12:50:16.207Z,26.15
2022-12-15T12:53:03.150Z,27.67
2022-12-15T12:55:48.407Z,27.62
2022-12-15T12:58:41.403Z,26.12
2022-12-15T13:01:27.138Z,27.13
2022-12-15T13:04:30.955Z,26.77
